Time;durP1;ratioP1;P1;durP2;ratioP2;P2;SDS_P1;SDS_P2;PMS_P1;PMS_P2;Temp;Humidity;BMP_temperature;BMP_pressure;BME280_temperature;BME280_humidity;BME280_pressure;Samples;Min_cycle;Max_cycle;Signal;HPM_P1;HPM_P2
2023/04/16 00:01:47;;;;;;;;;;;10.10;97.80;;;10.34;68.45;98611.78;4957955;28;124527;-79
2023/04/16 00:04:20;;;;;;;;;;;10.10;97.80;;;10.34;68.13;98623.66;4972210;28;124029;-79
2023/04/16 00:06:55;;;;;;;;;;;10.10;97.90;;;10.36;68.67;98615.03;4973497;28;108858;-77
2023/04/16 00:09:22;;;;;;;;;;;10.10;97.90;;;10.36;68.37;98615.03;4960874;28;108654;-78
2023/04/16 00:12:20;;;;;;;;;;;10.10;97.80;;;10.36;68.21;98620.56;4965703;28;124619;-79
2023/04/16 00:14:48;;;;;;;;;;;10.10;97.80;;;10.37;68.02;98616.69;4972903;28;124685;-79
2023/04/16 00:17:17;;;;;;;;;;;10.10;97.80;;;10.37;67.97;98617.50;4970800;28;109094;-78
2023/04/16 00:19:43;;;;;;;;;;;10.10;97.80;;;10.39;68.30;98625.44;4955589;28;108574;-79
2023/04/16 00:22:15;;;;;;;;;;;10.10;98.10;;;10.42;68.24;98622.06;4972318;28;124117;-78
2023/04/16 00:24:42;;;;;;;;;;;10.10;97.80;;;10.43;67.92;98614.63;4972283;28;123856;-78
2023/04/16 00:27:08;;;;;;;;;;;10.10;98.00;;;10.45;68.05;98617.84;4953076;28;109523;-78
2023/04/16 00:29:36;;;;;;;;;;;10.20;97.90;;;10.45;68.13;98621.44;4960653;28;108587;-79
2023/04/16 00:32:02;;;;;;;;;;;10.20;97.80;;;10.44;67.66;98610.72;4955032;28;124249;-78
2023/04/16 00:34:29;;;;;;;;;;;10.20;97.80;;;10.45;67.88;98628.91;4958380;28;122837;-78
2023/04/16 00:36:55;;;;;;;;;;;10.20;97.80;;;10.46;67.62;98627.78;4958831;28;110321;-78
2023/04/16 00:39:25;;;;;;;;;;;10.20;97.80;;;10.47;67.98;98630.22;4961821;28;109584;-78
2023/04/16 00:41:51;;;;;;;;;;;10.10;97.80;;;10.44;67.79;98617.03;4963627;28;123836;-79
2023/04/16 00:44:17;;;;;;;;;;;10.10;97.80;;;10.43;67.77;98626.47;4966084;28;124323;-78
2023/04/16 00:46:51;;;;;;;;;;;10.10;97.80;;;10.44;67.55;98625.31;4961131;28;109263;-80
2023/04/16 00:49:18;;;;;;;;;;;10.20;97.80;;;10.43;68.04;98626.47;4972757;28;108662;-78
2023/04/16 00:51:51;;;;;;;;;;;10.20;97.80;;;10.45;68.15;98618.69;4967651;28;124525;-77
2023/04/16 00:54:18;;;;;;;;;;;10.20;97.80;;;10.45;68.17;98632.50;4961813;28;124141;-78
2023/04/16 00:56:55;;;;;;;;;;;10.20;97.80;;;10.45;68.08;98629.75;4969419;28;109331;-77
2023/04/16 00:59:26;;;;;;;;;;;10.20;97.80;;;10.43;67.68;98618.19;4952618;28;108820;-81
2023/04/16 01:01:52;;;;;;;;;;;10.20;97.70;;;10.44;67.77;98627.28;4956069;28;124808;-78
2023/04/16 01:04:19;;;;;;;;;;;10.20;97.70;;;10.45;67.70;98617.84;4963236;28;124451;-77
2023/04/16 01:06:45;;;;;;;;;;;10.20;97.80;;;10.47;67.96;98623.88;4968833;28;109301;-77
2023/04/16 01:09:15;;;;;;;;;;;10.20;97.80;;;10.48;68.05;98623.56;4968884;28;108593;-78
2023/04/16 01:11:41;;;;;;;;;;;10.20;97.90;;;10.49;67.77;98627.97;4949629;28;124180;-77
2023/04/16 01:14:08;;;;;;;;;;;10.20;97.80;;;10.51;67.79;98628.47;4970365;28;123911;-78
2023/04/16 01:16:37;;;;;;;;;;;10.20;97.80;;;10.53;67.83;98636.41;4969271;28;109505;-78
2023/04/16 01:19:04;;;;;;;;;;;10.20;97.80;;;10.51;67.93;98627.66;4960436;28;109144;-78
2023/04/16 01:21:32;;;;;;;;;;;10.20;97.90;;;10.47;67.91;98637.69;4974658;28;124583;-76
2023/04/16 01:24:03;;;;;;;;;;;10.20;97.80;;;10.43;68.19;98633.94;4955897;28;124880;-77
2023/04/16 01:26:30;;;;;;;;;;;10.10;97.80;;;10.39;68.18;98636.50;4955214;28;110584;-77
2023/04/16 01:28:56;;;;;;;;;;;10.10;97.90;;;10.37;68.47;98638.78;4955384;28;109830;-77
2023/04/16 01:31:25;;;;;;;;;;;10.10;97.90;;;10.38;67.92;98638.47;4970861;28;124029;-77
2023/04/16 01:33:52;;;;;;;;;;;10.10;98.00;;;10.35;68.29;98636.31;4959350;28;123808;-78
2023/04/16 01:36:18;;;;;;;;;;;10.10;98.00;;;10.34;68.26;98640.22;4967050;28;109332;-77
2023/04/16 01:38:51;;;;;;;;;;;10.10;98.10;;;10.35;68.12;98641.03;4956291;28;108948;-77
2023/04/16 01:41:18;;;;;;;;;;;10.10;98.00;;;10.35;68.25;98636.31;4970484;28;124316;-78
2023/04/16 01:43:44;;;;;;;;;;;10.10;98.00;;;10.36;67.97;98637.13;4961209;28;123893;-78
2023/04/16 01:46:17;;;;;;;;;;;10.10;98.10;;;10.38;68.31;98645.94;4971985;28;109224;-78
2023/04/16 01:48:46;;;;;;;;;;;10.10;98.40;;;10.36;68.41;98646.22;4974376;28;107124;-77
2023/04/16 01:51:15;;;;;;;;;;;10.10;98.10;;;10.37;68.10;98649.84;4973664;28;124193;-79
2023/04/16 01:53:44;;;;;;;;;;;10.10;98.10;;;10.36;68.38;98645.41;4968268;28;124136;-78
2023/04/16 01:56:13;;;;;;;;;;;10.10;98.10;;;10.36;68.34;98648.19;4971641;28;109230;-76
2023/04/16 01:58:41;;;;;;;;;;;10.10;98.20;;;10.35;68.29;98638.28;4958195;28;108659;-76
2023/04/16 02:01:15;;;;;;;;;;;10.10;98.20;;;10.35;68.31;98635.50;4963711;28;124259;-77
2023/04/16 02:03:41;;;;;;;;;;;10.10;98.30;;;10.34;68.45;98639.38;4966798;28;122918;-76
2023/04/16 02:06:08;;;;;;;;;;;10.10;98.40;;;10.33;68.43;98643.28;4970300;28;109260;-75
2023/04/16 02:08:42;;;;;;;;;;;10.10;98.30;;;10.33;68.41;98643.28;4957639;28;108946;-76
2023/04/16 02:11:09;;;;;;;;;;;10.10;98.30;;;10.30;68.56;98643.94;4951618;28;124451;-75
2023/04/16 02:13:37;;;;;;;;;;;10.00;98.30;;;10.29;68.93;98645.03;4961443;28;123586;-76
2023/04/16 02:16:04;;;;;;;;;;;10.00;98.30;;;10.26;68.63;98638.19;4956328;28;109083;-75
2023/04/16 02:18:33;;;;;;;;;;;10.00;98.30;;;10.25;68.71;98646.78;4959933;28;110450;-76
2023/04/16 02:21:05;;;;;;;;;;;10.00;98.40;;;10.26;68.76;98645.63;4949511;28;123870;-75
2023/04/16 02:23:31;;;;;;;;;;;10.00;98.50;;;10.28;68.86;98641.47;4952335;28;124607;-75
2023/04/16 02:26:03;;;;;;;;;;;10.00;98.40;;;10.33;68.79;98648.81;4960811;28;109423;-75
2023/04/16 02:28:30;;;;;;;;;;;10.10;98.60;;;10.31;68.85;98646.34;4965730;28;108844;-76
2023/04/16 02:30:56;;;;;;;;;;;10.00;98.50;;;10.29;69.17;98650.56;4950894;28;124673;-76
2023/04/16 02:33:28;;;;;;;;;;;10.00;98.60;;;10.30;68.90;98644.75;4970786;28;124542;-76
2023/04/16 02:35:54;;;;;;;;;;;10.00;98.50;;;10.30;69.01;98654.97;4959474;28;109485;-76
2023/04/16 02:38:25;;;;;;;;;;;10.00;98.80;;;10.29;69.22;98656.94;4956508;28;108882;-75
2023/04/16 02:40:51;;;;;;;;;;;10.00;98.70;;;10.28;69.32;98651.69;4951992;28;124235;-76
2023/04/16 02:43:17;;;;;;;;;;;10.00;98.70;;;10.27;69.14;98647.28;4959852;28;123842;-76
2023/04/16 02:45:49;;;;;;;;;;;10.00;98.60;;;10.29;68.87;98645.03;4964296;28;109611;-80
2023/04/16 02:48:15;;;;;;;;;;;10.00;98.60;;;10.28;69.07;98652.50;4966265;28;108874;-78
2023/04/16 02:50:44;;;;;;;;;;;10.00;98.60;;;10.31;68.86;98656.59;4966768;28;123128;-76
2023/04/16 02:53:16;;;;;;;;;;;10.00;98.60;;;10.29;68.90;98656.94;4962642;28;124058;-76
2023/04/16 02:56:02;;;;;;;;;;;10.00;98.60;;;10.30;68.96;98655.78;4958806;28;109559;-76
2023/04/16 02:58:28;;;;;;;;;;;10.00;98.50;;;10.33;68.75;98665.38;4971535;28;108464;-77
2023/04/16 03:00:57;;;;;;;;;;;10.10;98.70;;;10.34;68.98;98655.97;4961408;28;124002;-76
2023/04/16 03:03:25;;;;;;;;;;;10.00;98.60;;;10.32;68.85;98659.06;4966679;28;123934;-76
2023/04/16 03:05:51;;;;;;;;;;;10.10;98.70;;;10.31;69.03;98659.34;4961095;28;114910;-76
2023/04/16 03:08:17;;;;;;;;;;;10.00;98.60;;;10.29;68.98;98656.94;4960428;28;110279;-76
2023/04/16 03:10:44;;;;;;;;;;;10.00;98.60;;;10.27;69.12;98655.56;4949271;28;125168;-76
2023/04/16 03:13:13;;;;;;;;;;;10.00;98.70;;;10.24;69.19;98658.97;4962889;28;124109;-76
2023/04/16 03:15:39;;;;;;;;;;;9.90;99.40;;;10.20;69.24;98661.53;4962005;28;109343;-76
2023/04/16 03:18:06;;;;;;;;;;;9.90;99.30;;;10.20;69.36;98660.72;4965330;28;108633;-76
2023/04/16 03:20:32;;;;;;;;;;;9.90;99.30;;;10.21;69.22;98662.31;4971278;28;124426;-77
2023/04/16 03:23:01;;;;;;;;;;;10.00;98.80;;;10.21;69.59;98659.56;4953490;28;124772;-77
2023/04/16 03:25:28;;;;;;;;;;;9.90;99.30;;;10.14;69.81;98666.34;4970208;28;109377;-76
2023/04/16 03:27:54;;;;;;;;;;;9.90;99.40;;;10.13;69.41;98655.63;4964783;28;108686;-77
2023/04/16 03:30:25;;;;;;;;;;;9.90;99.40;;;10.14;69.34;98671.88;4954976;28;124381;-76
2023/04/16 03:32:51;;;;;;;;;;;9.90;99.60;;;10.15;69.54;98676.28;4957836;28;124306;-76
2023/04/16 03:35:18;;;;;;;;;;;9.90;99.30;;;10.16;69.75;98668.81;4967923;28;109354;-76
2023/04/16 03:37:52;;;;;;;;;;;9.90;99.40;;;10.17;69.32;98674.00;4969548;28;108478;-76
2023/04/16 03:40:18;;;;;;;;;;;9.90;99.50;;;10.16;69.58;98666.88;4957261;28;123457;-76
2023/04/16 03:42:45;;;;;;;;;;;9.90;99.50;;;10.16;69.39;98672.38;4968271;28;122919;-77
2023/04/16 03:45:14;;;;;;;;;;;9.90;99.60;;;10.18;69.39;98677.56;4966582;28;109456;-76
2023/04/16 03:47:40;;;;;;;;;;;11.60;99.70;;;10.18;69.65;98675.66;4958539;28;108878;-77
2023/04/16 03:50:07;;;;;;;;;;;9.90;99.40;;;10.21;69.71;98678.91;4967587;28;124124;-76
2023/04/16 03:52:33;;;;;;;;;;;9.90;99.50;;;10.22;69.52;98681.34;4967347;28;124346;-76
2023/04/16 03:55:02;;;;;;;;;;;11.20;99.50;;;10.22;69.60;98681.34;4964856;28;110132;-76
2023/04/16 03:57:31;;;;;;;;;;;9.90;99.80;;;10.22;69.28;98686.06;4970511;28;110102;-77
2023/04/16 03:59:57;;;;;;;;;;;9.90;99.40;;;10.20;69.58;98678.09;4969863;28;124137;-77
2023/04/16 04:02:25;;;;;;;;;;;10.00;99.00;;;10.18;69.56;98686.69;4953719;28;123445;-77
2023/04/16 04:04:55;;;;;;;;;;;10.00;98.90;;;10.17;69.83;98690.56;4953381;28;109053;-76
2023/04/16 04:07:21;;;;;;;;;;;9.90;99.50;;;10.14;69.81;98691.19;4954934;28;108944;-76
2023/04/16 04:09:55;;;;;;;;;;;7.70;98.60;;;10.15;69.52;98689.25;4958285;28;124182;-77
2023/04/16 04:12:21;;;;;;;;;;;9.90;99.50;;;10.14;69.54;98691.19;4967652;28;124208;-76
2023/04/16 04:14:47;;;;;;;;;;;9.90;99.50;;;10.17;69.85;98690.56;4955624;28;108420;-76
2023/04/16 04:17:19;;;;;;;;;;;11.90;99.90;;;10.15;69.36;98692.84;4970658;28;108494;-76
2023/04/16 04:19:48;;;;;;;;;;;9.90;99.60;;;10.15;69.85;98703.06;4957741;28;124239;-76
2023/04/16 04:22:19;;;;;;;;;;;9.90;99.60;;;10.16;69.51;98697.22;4970408;28;124584;-77
2023/04/16 04:24:48;;;;;;;;;;;9.90;99.60;;;10.16;69.47;98704.69;4959427;28;109583;-76
2023/04/16 04:27:17;;;;;;;;;;;9.90;99.60;;;10.15;69.79;98703.91;4960118;28;108397;-76
2023/04/16 04:29:43;;;;;;;;;;;9.80;99.70;;;10.12;69.49;98707.25;4955366;28;124150;-76
2023/04/16 04:32:12;;;;;;;;;;;9.80;99.70;;;10.12;69.46;98704.50;4955917;28;122885;-77
2023/04/16 04:34:41;;;;;;;;;;;9.80;99.70;;;10.10;69.68;98704.00;4955844;28;109055;-76
2023/04/16 04:37:07;;;;;;;;;;;9.80;99.60;;;10.08;69.64;98709.00;4962706;28;107500;-77
2023/04/16 04:39:34;;;;;;;;;;;9.80;99.60;;;10.04;69.90;98713.50;4962017;28;123827;-77
2023/04/16 04:42:02;;;;;;;;;;;9.80;99.70;;;10.06;69.95;98715.97;4957753;28;124634;-76
2023/04/16 04:44:29;;;;;;;;;;;9.80;99.70;;;10.06;69.54;98716.78;4974769;28;110149;-76
2023/04/16 04:46:56;;;;;;;;;;;9.80;99.70;;;10.09;69.81;98721.69;4964828;28;109717;-77
2023/04/16 04:49:22;;;;;;;;;;;9.80;99.80;;;10.04;69.95;98724.56;4957508;28;123727;-76
2023/04/16 04:51:48;;;;;;;;;;;9.80;99.90;;;10.04;70.31;98721.78;4964589;28;123871;-77
2023/04/16 04:54:20;;;;;;;;;;;9.80;99.90;;;10.03;69.86;98722.13;4970951;28;109569;-77
2023/04/16 04:56:46;;;;;;;;;;;9.80;99.80;;;10.01;69.94;98736.22;4958418;28;108862;-76
2023/04/16 04:59:12;;;;;;;;;;;9.80;99.80;;;10.04;70.01;98740.31;4971305;28;124226;-76
2023/04/16 05:01:42;;;;;;;;;;;9.80;99.80;;;10.02;70.32;98735.13;4968345;28;122926;-76
2023/04/16 05:04:08;;;;;;;;;;;9.80;99.90;;;10.01;70.30;98736.22;4957748;28;108314;-76
2023/04/16 05:06:34;;;;;;;;;;;9.80;99.90;;;10.02;69.92;98731.50;4959409;28;108976;-77
2023/04/16 05:09:00;;;;;;;;;;;9.70;99.90;;;10.00;70.38;98739.31;4953775;28;124164;-76
2023/04/16 05:11:33;;;;;;;;;;;9.80;99.90;;;10.02;69.83;98748.91;4954136;28;123915;-76
2023/04/16 05:13:59;;;;;;;;;;;9.70;99.80;;;10.00;69.94;98745.63;4964885;28;109055;-76
2023/04/16 05:16:25;;;;;;;;;;;9.80;99.90;;;10.01;69.93;98755.53;4967928;28;108644;-76
2023/04/16 05:18:54;;;;;;;;;;;9.70;99.80;;;9.99;70.40;98752.25;4969977;28;124196;-77
2023/04/16 05:21:25;;;;;;;;;;;9.80;99.90;;;10.00;70.23;98767.72;4970718;28;123816;-77
2023/04/16 05:23:51;;;;;;;;;;;9.80;99.90;;;10.00;70.30;98764.16;4969692;28;109284;-77
2023/04/16 05:26:18;;;;;;;;;;;9.80;99.90;;;10.01;70.18;98769.34;4970988;28;108831;-77
2023/04/16 05:28:44;;;;;;;;;;;9.80;99.90;;;10.02;70.06;98767.38;4962796;28;124120;-76
2023/04/16 05:31:17;;;;;;;;;;;9.80;99.90;;;10.02;70.24;98768.22;4962079;28;124571;-77
2023/04/16 05:33:46;;;;;;;;;;;9.80;99.90;;;10.00;70.15;98778.75;4969960;28;110334;-76
2023/04/16 05:36:12;;;;;;;;;;;9.70;99.90;;;9.99;70.26;98771.59;4970963;28;109653;-76
2023/04/16 05:38:42;;;;;;;;;;;9.70;99.90;;;9.97;70.58;98771.09;4955684;28;123235;-76
2023/04/16 05:41:08;;;;;;;;;;;9.70;99.90;;;9.95;70.67;98771.41;4967984;28;124092;-77
2023/04/16 05:43:34;;;;;;;;;;;9.70;99.90;;;9.94;71.04;98780.81;4963821;28;109274;-77
2023/04/16 05:46:00;;;;;;;;;;;9.70;99.90;;;9.95;70.78;98781.63;4972865;28;108775;-76
2023/04/16 05:48:27;;;;;;;;;;;9.60;99.90;;;10.00;70.67;98784.28;4969241;28;124108;-78
2023/04/16 05:50:54;;;;;;;;;;;9.70;99.90;;;10.00;70.54;98789.81;4937333;28;123463;-76
2023/04/16 05:53:20;;;;;;;;;;;9.70;99.90;;;9.97;70.88;98787.66;4963434;28;109475;-76
2023/04/16 05:55:47;;;;;;;;;;;9.70;99.90;;;9.93;70.86;98786.63;4971583;28;108875;-76
2023/04/16 05:58:13;;;;;;;;;;;9.60;99.90;;;9.92;71.18;98788.59;4960013;28;123370;-76
2023/04/16 06:00:42;;;;;;;;;;;9.70;99.90;;;9.93;71.03;98801.25;4943659;28;122150;-77
2023/04/16 06:03:08;;;;;;;;;;;9.70;99.90;;;9.93;70.85;98801.25;4962729;28;109060;-76
2023/04/16 06:05:37;;;;;;;;;;;9.70;99.90;;;9.94;70.87;98802.09;4969551;28;108603;-76
2023/04/16 06:08:06;;;;;;;;;;;9.70;99.90;;;9.94;71.14;98807.59;4955693;28;124166;-76
2023/04/16 06:10:35;;;;;;;;;;;9.70;99.90;;;9.95;71.20;98798.19;4961849;28;123859;-77
2023/04/16 06:13:06;;;;;;;;;;;9.70;99.90;;;9.97;70.85;98795.94;4962874;28;109183;-77
2023/04/16 06:15:35;;;;;;;;;;;9.70;99.90;;;9.96;71.28;98803.38;4947377;28;107770;-77
2023/04/16 06:18:02;;;;;;;;;;;9.70;99.90;;;9.97;70.94;98806.97;4962429;28;124178;-77
2023/04/16 06:20:31;;;;;;;;;;;9.70;99.90;;;9.99;71.01;98807.47;4964373;28;124395;-77
2023/04/16 06:22:57;;;;;;;;;;;9.70;99.90;;;10.00;71.20;98809.13;4969413;28;110166;-77
2023/04/16 06:25:24;;;;;;;;;;;9.70;99.90;;;10.03;70.95;98802.16;4958024;28;109638;-77
2023/04/16 06:27:50;;;;;;;;;;;9.70;99.90;;;10.03;70.68;98811.25;4969363;28;123282;-77
2023/04/16 06:30:18;;;;;;;;;;;9.70;99.90;;;10.03;70.90;98819.53;4966192;28;124334;-77
2023/04/16 06:32:45;;;;;;;;;;;9.70;99.90;;;10.00;70.91;98817.41;4970107;28;110022;-77
2023/04/16 06:35:11;;;;;;;;;;;9.70;99.90;;;9.98;71.04;98808.59;4968926;28;108744;-77
2023/04/16 06:37:37;;;;;;;;;;;9.70;99.90;;;9.98;71.16;98816.88;4964828;28;124341;-77
2023/04/16 06:40:07;;;;;;;;;;;9.70;99.90;;;9.95;71.01;98809.22;4966009;28;123942;-77
2023/04/16 06:42:33;;;;;;;;;;;9.60;99.90;;;9.96;70.83;98816.38;4968864;28;108612;-79
2023/04/16 06:45:02;;;;;;;;;;;9.70;99.90;;;9.99;71.26;98814.94;4957307;28;108798;-77
2023/04/16 06:47:31;;;;;;;;;;;9.70;99.90;;;9.98;70.96;98819.66;4952270;28;124361;-77
2023/04/16 06:49:58;;;;;;;;;;;9.70;99.90;;;9.98;71.15;98819.66;4962855;28;124354;-78
2023/04/16 06:52:24;;;;;;;;;;;9.70;99.90;;;9.98;70.81;98830.69;4964101;28;108520;-77
2023/04/16 06:54:50;;;;;;;;;;;9.70;99.90;;;9.98;70.91;98824.34;4956758;28;107705;-77
2023/04/16 06:57:19;;;;;;;;;;;9.70;99.90;;;9.98;70.84;98825.16;4951714;28;124993;-77
2023/04/16 06:59:45;;;;;;;;;;;9.70;99.90;;;9.99;70.98;98826.78;4961924;28;124164;-77
2023/04/16 07:02:11;;;;;;;;;;;9.70;99.90;;;10.01;71.04;98824.53;4969633;28;109084;-77
2023/04/16 07:04:38;;;;;;;;;;;9.70;99.90;;;10.04;70.70;98829.44;4956433;28;107882;-77
2023/04/16 07:07:07;;;;;;;;;;;9.70;99.90;;;10.05;71.02;98836.63;4957221;28;123490;-77
2023/04/16 07:09:36;;;;;;;;;;;9.80;99.90;;;10.05;70.71;98831.09;4952312;28;124623;-81
2023/04/16 07:12:08;;;;;;;;;;;9.80;99.90;;;10.06;70.91;98837.44;4956133;28;109619;-77
2023/04/16 07:14:35;;;;;;;;;;;9.80;99.90;;;10.03;70.82;98830.59;4968160;28;109700;-78
2023/04/16 07:17:01;;;;;;;;;;;9.80;99.90;;;10.02;70.81;98834.47;4967064;28;124252;-77
2023/04/16 07:19:31;;;;;;;;;;;9.70;99.90;;;10.04;70.84;98834.97;4964178;28;123705;-77
2023/04/16 07:22:00;;;;;;;;;;;9.70;99.90;;;10.06;70.69;98840.19;4971403;28;109410;-77
2023/04/16 07:24:26;;;;;;;;;;;9.80;99.90;;;10.08;71.05;98838.75;4968682;28;108979;-77
2023/04/16 07:26:55;;;;;;;;;;;9.70;99.90;;;10.06;70.68;98831.91;4963557;28;123416;-79
2023/04/16 07:29:22;;;;;;;;;;;9.70;99.90;;;10.08;71.12;98841.53;4962490;28;124428;-77
2023/04/16 07:31:48;;;;;;;;;;;9.80;99.90;;;10.12;70.77;98839.75;4966227;28;109244;-76
2023/04/16 07:34:17;;;;;;;;;;;9.80;99.90;;;10.16;70.71;98829.75;4954811;28;108725;-77
2023/04/16 07:36:44;;;;;;;;;;;9.80;99.90;;;10.17;70.89;98839.66;4964886;28;122240;-80
2023/04/16 07:39:11;;;;;;;;;;;9.80;99.90;;;10.20;70.85;98848.44;4963383;28;123962;-77
2023/04/16 07:41:44;;;;;;;;;;;9.80;99.90;;;10.21;70.85;98855.59;4966883;28;109390;-77
2023/04/16 07:44:18;;;;;;;;;;;9.90;99.90;;;10.21;70.54;98850.06;4968588;28;108541;-88
2023/04/16 07:46:44;;;;;;;;;;;9.80;99.90;;;10.20;70.72;98856.75;4956308;28;122860;-77
2023/04/16 07:49:13;;;;;;;;;;;9.80;99.90;;;10.20;70.34;98854.78;4969202;28;124522;-78
2023/04/16 07:51:42;;;;;;;;;;;9.90;99.90;;;10.22;70.59;98863.59;4961047;28;109606;-79
2023/04/16 07:54:09;;;;;;;;;;;9.80;99.90;;;10.23;70.59;98865.22;4967147;28;108653;-78
2023/04/16 07:56:36;;;;;;;;;;;9.90;99.90;;;10.25;70.35;98867.69;4969261;28;123922;-79
2023/04/16 07:59:08;;;;;;;;;;;9.90;99.90;;;10.28;70.52;98870.66;4969138;28;123961;-78
2023/04/16 08:01:34;;;;;;;;;;;9.90;99.90;;;10.31;70.14;98864.50;4956531;28;110174;-79
2023/04/16 08:04:00;;;;;;;;;;;9.90;99.90;;;10.31;70.13;98869.22;4969555;28;109914;-78
2023/04/16 08:06:33;;;;;;;;;;;9.90;99.90;;;10.31;70.17;98874.75;4967634;28;124622;-78
2023/04/16 08:08:59;;;;;;;;;;;10.00;99.90;;;10.30;69.96;98878.66;4967330;28;122924;-79
2023/04/16 08:11:25;;;;;;;;;;;10.00;99.90;;;10.32;70.21;98891.03;4968291;28;109329;-78
2023/04/16 08:13:54;;;;;;;;;;;10.00;99.90;;;10.31;70.09;98875.56;4969522;28;108857;-78
2023/04/16 08:16:21;;;;;;;;;;;10.00;99.90;;;10.31;70.18;98880.28;4969084;28;123579;-78
2023/04/16 08:18:47;;;;;;;;;;;10.00;99.90;;;10.33;70.08;98886.31;4960860;28;124573;-78
2023/04/16 08:21:13;;;;;;;;;;;10.00;99.90;;;10.34;70.07;98890.69;4974796;28;109467;-78
2023/04/16 08:23:42;;;;;;;;;;;10.00;99.90;;;10.33;69.59;98886.31;4959258;28;108805;-78
2023/04/16 08:26:11;;;;;;;;;;;10.00;99.90;;;10.32;69.74;98899.31;4965984;28;124633;-78
2023/04/16 08:28:42;;;;;;;;;;;10.00;99.90;;;10.35;69.60;98895.13;4958892;28;123907;-79
2023/04/16 08:31:08;;;;;;;;;;;10.00;99.90;;;10.31;69.45;98888.56;4956919;28;109331;-80
2023/04/16 08:33:35;;;;;;;;;;;10.00;99.90;;;10.33;69.71;98902.88;4968372;28;109355;-78
2023/04/16 08:36:01;;;;;;;;;;;10.00;99.80;;;10.33;69.60;98903.69;4970039;28;124557;-79
2023/04/16 08:38:33;;;;;;;;;;;10.00;99.80;;;10.33;69.77;98908.41;4953269;28;123802;-81
2023/04/16 08:41:33;;;;;;;;;;;10.00;99.90;;;10.32;69.53;98906.78;4963660;28;109456;-78
2023/04/16 08:44:06;;;;;;;;;;;8.80;99.80;;;10.31;69.98;98919.75;4972150;28;108885;-78
2023/04/16 08:46:36;;;;;;;;;;;12.00;99.90;;;10.33;70.20;98908.41;4955022;28;124316;-79
2023/04/16 08:49:22;;;;;;;;;;;10.00;99.70;;;10.37;69.79;98914.97;4971447;28;123909;-83
2023/04/16 08:51:56;;;;;;;;;;;10.10;99.80;;;10.41;70.06;98915.97;4968560;28;111056;-83
2023/04/16 08:54:57;;;;;;;;;;;10.10;99.90;;;10.45;70.03;98922.53;4967411;28;109425;-83
2023/04/16 08:57:26;;;;;;;;;;;10.10;99.90;;;10.49;69.71;98917.19;4945723;28;124182;-82
2023/04/16 08:59:55;;;;;;;;;;;10.20;99.90;;;10.50;69.34;98922.38;4961017;28;123158;-81
2023/04/16 09:02:21;;;;;;;;;;;10.20;99.80;;;10.52;69.69;98924.84;4955574;28;109393;-77
2023/04/16 09:04:54;;;;;;;;;;;10.20;99.70;;;10.56;68.95;98931.41;4953334;28;108856;-78
2023/04/16 09:07:20;;;;;;;;;;;10.20;99.70;;;10.52;69.46;98917.38;4955464;28;124178;-79
2023/04/16 09:09:49;;;;;;;;;;;10.20;99.70;;;10.53;69.65;98932.00;4968945;28;123720;-77
2023/04/16 09:12:23;;;;;;;;;;;10.20;99.70;;;10.55;69.33;98927.81;4969721;28;109406;-79
2023/04/16 09:14:49;;;;;;;;;;;10.20;99.70;;;10.56;69.57;98935.00;4967649;28;108315;-78
2023/04/16 09:17:18;;;;;;;;;;;10.20;99.60;;;10.60;69.03;98924.13;4968406;28;124267;-78
2023/04/16 09:19:45;;;;;;;;;;;10.30;99.70;;;10.65;69.03;98937.84;4968145;28;124587;-80
2023/04/16 09:22:11;;;;;;;;;;;10.60;99.80;;;10.70;68.97;98934.97;4966770;28;109465;-77
2023/04/16 09:24:37;;;;;;;;;;;10.30;99.60;;;10.72;69.03;98934.63;4967229;28;108689;-78
2023/04/16 09:27:07;;;;;;;;;;;10.40;99.60;;;10.76;68.88;98936.47;4967944;28;124140;-78
2023/04/16 09:29:42;;;;;;;;;;;10.40;99.60;;;10.79;68.58;98944.13;4962783;28;124415;-78
2023/04/16 09:32:12;;;;;;;;;;;10.40;99.60;;;10.79;68.66;98941.38;4971359;28;109430;-78
2023/04/16 09:34:55;;;;;;;;;;;10.40;99.60;;;10.78;68.81;98939.75;4957686;28;108856;-79
2023/04/16 09:37:32;;;;;;;;;;;10.40;99.50;;;10.82;68.55;98949.03;4958097;28;123639;-80
2023/04/16 09:40:05;;;;;;;;;;;10.40;99.50;;;10.83;68.49;98938.84;4960833;28;126472;-86
2023/04/16 09:42:36;;;;;;;;;;;10.40;99.50;;;10.86;68.56;98945.69;4966145;28;110441;-79
2023/04/16 09:45:05;;;;;;;;;;;10.50;99.50;;;10.92;68.71;98952.72;4962023;28;109681;-77
2023/04/16 09:47:44;;;;;;;;;;;10.50;99.50;;;10.94;68.30;98940.22;4957783;28;123682;-78
2023/04/16 09:50:15;;;;;;;;;;;10.50;99.40;;;10.95;68.64;98947.38;4965738;28;123572;-78
2023/04/16 09:52:49;;;;;;;;;;;10.60;99.40;;;10.97;68.43;98945.13;4970435;28;109648;-78
2023/04/16 09:55:20;;;;;;;;;;;10.60;99.40;;;11.00;68.52;98958.31;4974560;28;108908;-77
2023/04/16 09:57:47;;;;;;;;;;;10.60;99.30;;;11.01;68.23;98961.91;4956861;28;123048;-78
2023/04/16 10:00:23;;;;;;;;;;;10.60;99.20;;;11.01;68.34;98957.19;4960419;28;124102;-78
2023/04/16 10:03:04;;;;;;;;;;;10.70;99.20;;;11.01;67.66;98956.38;4963595;28;109067;-79
2023/04/16 10:05:33;;;;;;;;;;;10.70;99.10;;;10.97;67.61;98961.72;4969493;28;108800;-80
2023/04/16 10:08:00;;;;;;;;;;;10.70;99.00;;;10.98;67.66;98962.53;4966815;28;126306;-87
2023/04/16 10:10:27;;;;;;;;;;;10.70;98.90;;;11.00;67.74;98965.81;4957747;28;123660;-79
2023/04/16 10:12:57;;;;;;;;;;;10.70;98.90;;;11.03;67.80;98956.88;4967868;28;109382;-86
2023/04/16 10:15:24;;;;;;;;;;;10.70;98.90;;;11.00;67.92;98958.31;4938870;28;107865;-79
2023/04/16 10:17:50;;;;;;;;;;;9.00;98.70;;;10.99;67.70;98969.72;4953866;28;124183;-77
2023/04/16 10:20:17;;;;;;;;;;;10.70;98.80;;;10.99;67.55;98976.06;4961832;28;124126;-78
2023/04/16 10:22:45;;;;;;;;;;;10.70;98.80;;;10.98;67.84;98974.41;4955147;28;108444;-79
2023/04/16 10:25:12;;;;;;;;;;;10.70;98.90;;;11.02;67.78;98991.22;4965569;28;108642;-80
2023/04/16 10:27:50;;;;;;;;;;;10.70;98.90;;;11.02;67.73;98980.97;4962767;28;124241;-82
2023/04/16 10:30:17;;;;;;;;;;;10.70;98.90;;;11.02;67.56;98980.16;4968423;28;123965;-80
2023/04/16 10:32:45;;;;;;;;;;;10.70;98.90;;;11.00;67.88;98976.88;4964700;28;110163;-77
2023/04/16 10:35:17;;;;;;;;;;;10.70;99.00;;;11.05;67.62;98988.63;4967063;28;109643;-78
2023/04/16 10:37:44;;;;;;;;;;;10.70;99.00;;;11.06;68.07;98981.16;4971188;28;125005;-78
2023/04/16 10:40:22;;;;;;;;;;;10.70;99.00;;;11.09;68.03;98969.47;4965447;28;123928;-78
2023/04/16 10:43:00;;;;;;;;;;;10.80;99.10;;;11.12;68.21;98990.13;4959435;28;109649;-87
2023/04/16 10:45:30;;;;;;;;;;;10.80;99.00;;;11.11;68.01;98981.03;4964641;28;108707;-78
2023/04/16 10:48:13;;;;;;;;;;;10.80;99.00;;;11.12;68.03;98981.84;4967843;28;124521;-78
2023/04/16 10:50:40;;;;;;;;;;;10.80;99.00;;;11.09;67.80;98963.94;4965014;28;124099;-81
2023/04/16 10:53:27;;;;;;;;;;;10.80;99.00;;;11.13;67.72;98980.72;4961786;28;109130;-79
2023/04/16 10:56:02;;;;;;;;;;;10.80;99.00;;;11.19;67.58;98973.94;4968781;28;109077;-79
2023/04/16 10:58:30;;;;;;;;;;;10.90;99.00;;;11.20;68.04;98976.41;4956051;28;123734;-80
2023/04/16 11:01:06;;;;;;;;;;;10.90;99.00;;;11.24;68.05;98980.16;4966392;28;125013;-81
2023/04/16 11:03:32;;;;;;;;;;;10.90;99.00;;;11.28;67.84;98972.06;4962850;28;110452;-81
2023/04/16 11:06:12;;;;;;;;;;;10.90;98.90;;;11.32;67.37;98981.38;4964338;28;110205;-80
2023/04/16 11:08:40;;;;;;;;;;;11.00;98.90;;;11.33;67.24;98985.78;4958176;28;124200;-80
2023/04/16 11:11:06;;;;;;;;;;;13.20;99.80;;;11.38;67.44;98974.59;4962772;28;123943;-84
2023/04/16 11:13:38;;;;;;;;;;;11.00;98.90;;;11.37;67.27;98984.03;4964115;28;108373;-80
2023/04/16 11:16:04;;;;;;;;;;;11.00;98.80;;;11.35;67.33;98989.06;4972321;28;109228;-78
2023/04/16 11:18:35;;;;;;;;;;;11.00;98.80;;;11.35;67.35;98977.97;4968920;28;124302;-83
2023/04/16 11:21:07;;;;;;;;;;;11.00;98.80;;;11.38;67.37;98982.88;4972735;28;124411;-79
2023/04/16 11:23:48;;;;;;;;;;;11.00;98.90;;;11.38;67.39;98988.41;4970333;28;110742;-82